• Join FlightAware (Why Join?)
  • Login
  • US Flag 
05:04AM EDT


 

Airport Tracker/Info


-or-


 

Live Flight TrackerFlight Track Log ✈ CPZ5750 ✈ 15-Jul-2013 ✈ KMSP - KALB

Flight Track Log - Related Links

Times and Time Zones

All times are in EDT time to prevent confusion due to time zone crossing. See the CPZ5750 flight status page for this flight to view local times or setup timezone preferences in your user account.

Time Position Orientation Groundspeed Altitude Reporting Facility
EDT Latitude Longitude Course Direction KTS MPH feet Rate Location/Type
04:31PM 44.8667 -93.1167 70° East 197 227 2,600  Level Minneapolis TRACON
04:31PM 44.8708 -93.0956 74° East 216 249 3,100 2,100 Climbing Minneapolis Center
04:32PM 44.9517 -93.0414 25° Northeast 276 318 6,100 2,640 Climbing Minneapolis Center
04:33PM 45.0393 -92.6211 68° East  Level FlightAware Approximate
04:33PM 45.0292 -92.9958 23° Northeast 299 344 8,600  Level Minneapolis Center
04:34PM 45.0820 -92.4715 68° East  Level FlightAware Approximate
04:35PM 45.1163 -92.3185 70° East  Level FlightAware Approximate
04:35PM 45.0858 -92.9058 48° Northeast 314 361 10,800  Level Minneapolis Center
04:36PM 45.1540 -92.1674 70° East  Level FlightAware Approximate
04:36PM 45.1503 -92.7239 63° Northeast 371 427 13,100  Level Minneapolis Center
04:37PM 45.1981 -92.5875 64° Northeast 385 443 15,100 1,860 Climbing Minneapolis Center
04:38PM 45.2481 -92.4467 63° Northeast 401 461 17,000 1,560 Climbing Minneapolis Center
04:39PM 45.2967 -92.3056 64° Northeast 396 456 18,400 1,320 Climbing Minneapolis Center
04:40PM 45.3233 -92.1450 77° East 415 478 19,800 1,320 Climbing Minneapolis Center
04:41PM 45.3447 -91.9786 80° East 427 491 21,200 1,440 Climbing Minneapolis Center
04:42PM 45.3731 -91.7733 79° East 438 504 22,800 1,320 Climbing Minneapolis Center
04:43PM 45.3969 -91.5986 79° East 447 514 24,000 1,140 Climbing Minneapolis Center
04:44PM 45.4194 -91.4206 80° East 455 524 25,200 1,020 Climbing Minneapolis Center
04:45PM 45.4444 -91.2339 79° East 461 531 26,200 780 Climbing Minneapolis Center
04:46PM 45.4658 -91.0500 81° East 469 540 27,100 780 Climbing Minneapolis Center
04:47PM 45.4192 -90.8394 107° East 472 543 28,100 900 Climbing Minneapolis Center
04:48PM 45.3550 -90.6350 114° Southeast 474 545 29,000 900 Climbing Minneapolis Center
04:49PM 45.3011 -90.4619 114° Southeast 480 552 30,000 780 Climbing Minneapolis Center
04:50PM 45.2469 -90.2903 114° Southeast 479 551 30,700 780 Climbing Minneapolis Center
04:51PM 45.1908 -90.1186 115° Southeast 481 554 31,700 960 Climbing Minneapolis Center
04:52PM 45.1367 -89.9494 114° Southeast 478 550 32,800 1,080 Climbing Minneapolis Center
04:53PM 45.0842 -89.7831 114° Southeast 469 540 34,000 960 Climbing Minneapolis Center
04:55PM 45.0247 -89.6000 115° Southeast 460 529 34,800 480 Climbing Minneapolis Center
04:56PM 44.9708 -89.4356 115° Southeast 459 528 35,000 60 Climbing Minneapolis Center
04:57PM 44.9158 -89.2694 115° Southeast 464 534 35,000  Level Minneapolis Center
04:58PM 44.8519 -89.0761 115° Southeast 464 534 35,000  Level Minneapolis Center
04:59PM 44.7978 -88.9114 115° Southeast 463 533 35,000  Level Minneapolis Center
05:00PM 44.7425 -88.7472 115° Southeast 463 533 35,000  Level Minneapolis Center
05:01PM 44.6867 -88.5836 116° Southeast 463 533 35,000  Level Minneapolis Center
05:02PM 44.6308 -88.4194 115° Southeast 464 534 35,000  Level Minneapolis Center
05:03PM 44.5758 -88.2567 115° Southeast 461 531 35,000  Level Minneapolis Center
05:04PM 44.5536 -88.0469 98° East 471 542 35,000  Level Minneapolis Center
05:05PM 44.5506 -87.8822 91° East 469 540 35,000  Level Minneapolis Center
05:06PM 44.5483 -87.6997 91° East 469 540 35,000  Level Minneapolis Center
05:07PM 44.5447 -87.4831 91° East 466 536 35,000  Level Minneapolis Center
05:08PM 44.5414 -87.3019 91° East 467 537 35,000  Level Minneapolis Center
05:09PM 44.5369 -87.1211 92° East 467 537 35,000  Level Minneapolis Center
05:10PM 44.5322 -86.9411 92° East 467 537 35,000  Level Minneapolis Center
05:11PM 44.5289 -86.7606 91° East 465 535 35,000  Level Minneapolis Center
05:12PM 44.5242 -86.5442 92° East 467 537 35,000  Level Minneapolis Center
05:13PM 44.5192 -86.3650 92° East 465 535 35,000  Level Minneapolis Center
05:14PM 44.5136 -86.1872 92° East 464 534 35,000  Level Minneapolis Center
05:15PM 44.5081 -86.0092 92° East 463 533 35,000  Level Minneapolis Center
05:16PM 44.5025 -85.8306 92° East 465 535 35,000  Level Minneapolis Center
05:17PM 44.4964 -85.6167 92° East 464 534 35,000  Level Minneapolis Center
05:18PM 44.4897 -85.4392 93° East 461 531 35,000  Level Minneapolis Center
05:19PM 44.4836 -85.2606 93° East 462 532 35,000  Level Minneapolis Center
05:20PM 44.4783 -85.0822 92° East 462 532 35,000  Level Minneapolis Center
05:21PM 44.4708 -84.8681 93° East 461 531 35,000  Level Minneapolis Center
05:22PM 44.4619 -84.6906 94° East 460 529 35,000  Level Minneapolis Center
05:24PM 44.4550 -84.5111 93° East 462 532 35,000  Level Minneapolis Center
05:25PM 44.4489 -84.3697 93° East 460 529 35,000  Level Minneapolis Center
05:26PM 44.4383 -84.1531 94° East 467 537 35,000  Level Minneapolis Center
05:27PM 44.4319 -83.9722 93° East 467 537 35,000  Level Minneapolis Center
05:28PM 44.4214 -83.7581 94° East 463 533 35,000  Level Minneapolis Center
05:29PM 44.4114 -83.5786 94° East 463 533 35,000  Level Minneapolis Center
05:30PM 44.4017 -83.4000 94° East 462 532 35,000  Level Minneapolis Center
05:31PM 44.3906 -83.1861 94° East 462 532 35,000  Level Minneapolis Center
05:32PM 44.3828 -83.0422 94° East 464 534 35,000  Level Minneapolis Center
05:33PM 44.3500 -82.8333 102° East 460 529 35,000  Level Toronto Center
05:34PM 44.3500 -82.6333 90° East 460 529 35,000  Level Toronto Center
05:35PM 44.3333 -82.4500 97° East 460 529 35,000  Level Toronto Center
05:36PM 44.3167 -82.2833 98° East 460 529 35,000  Level Toronto Center
05:37PM 44.2833 -82.1000 104° East 460 529 35,000  Level Toronto Center
05:38PM 44.2333 -81.9333 113° Southeast 460 529 35,000  Level Toronto Center
05:39PM 44.2000 -81.7667 106° East 460 529 35,000  Level Toronto Center
05:40PM 44.1667 -81.6167 107° East 460 529 35,000  Level Toronto Center
05:41PM 44.1167 -81.4500 113° Southeast 450 518 35,000  Level Toronto Center
05:42PM 44.0667 -81.2833 113° Southeast 450 518 35,000  Level Toronto Center
05:43PM 44.0333 -81.1167 105° East 450 518 35,000  Level Toronto Center
05:44PM 43.9833 -80.9333 111° Southeast 450 518 35,000  Level Toronto Center
05:45PM 43.9667 -80.7667 98° East 450 518 35,000  Level Toronto Center
05:46PM 43.9167 -80.6333 117° Southeast 450 518 35,000  Level Toronto Center
05:47PM 43.8667 -80.4500 111° Southeast 450 518 35,000  Level Toronto Center
05:48PM 43.8333 -80.2833 105° East 450 518 35,000  Level Toronto Center
05:49PM 43.7833 -80.1167 113° Southeast 450 518 35,000  Level Toronto Center
05:50PM 43.7333 -79.9500 112° Southeast 450 518 35,000  Level Toronto Center
05:51PM 43.7000 -79.8000 107° East 450 518 35,000  Level Toronto Center
05:52PM 43.6500 -79.6333 112° Southeast 460 529 35,000  Level Toronto Center
05:53PM 43.6333 -79.4500 97° East 470 541 35,000  Level Toronto Center
05:54PM 43.6000 -79.2833 105° East 440 506 35,000  Level Toronto Center
05:55PM 43.5833 -79.1333 99° East 450 518 35,000  Level Toronto Center
05:56PM 43.5667 -78.9500 97° East 460 529 35,000  Level Toronto Center
05:57PM 43.5333 -78.7667 104° East 450 518 35,000  Level Toronto Center
05:58PM 43.5167 -78.6000 98° East 450 518 35,000 -60 Level Toronto Center
05:59PM 43.4833 -78.4167 104° East 450 518 34,900 -360 Descending Toronto Center
06:00PM 43.4750 -78.2719 94° East 450 518 34,300 -780 Descending Cleveland Center
06:01PM 43.4508 -78.1042 101° East 450 518 33,400 -1,020 Descending Cleveland Center
06:02PM 43.4261 -77.9306 101° East 450 518 32,300 -1,140 Descending Cleveland Center
06:03PM 43.4011 -77.7575 101° East 450 518 31,200 -1,080 Descending Cleveland Center
06:05PM 43.3553 -77.4556 102° East 451 519 29,200 -780 Descending Boston Center
06:06PM 43.3292 -77.2847 102° East 456 525 29,000 -120 Descending Boston Center
06:07PM 43.2833 -77.0500 105° East 460 529 29,000  Level Toronto Center
06:08PM 43.2667 -76.8667 97° East 460 529 29,000  Level Toronto Center
06:09PM 43.2500 -76.7000 98° East 460 529 29,000  Level Toronto Center
06:10PM 43.2000 -76.5500 115° Southeast 460 529 29,000 -420 Level Toronto Center
06:11PM 43.1833 -76.3667 97° East 460 529 28,200 -900 Descending Toronto Center
06:12PM 43.1686 -76.2439 99° East 456 525 27,300 -1,140 Descending Boston Center
06:13PM 43.1428 -76.0772 102° East 456 525 26,100 -1,380 Descending Boston Center
06:14PM 43.1144 -75.9103 103° East 451 519 24,600 -1,500 Descending Boston Center
06:15PM 43.0903 -75.7497 102° East 445 512 23,100 -1,500 Descending Boston Center
06:16PM 43.0614 -75.5889 104° East 438 504 21,600 -1,680 Descending Boston Center
06:17PM 43.0364 -75.4372 103° East 427 491 19,800 -1,800 Descending Boston Center
06:18PM 43.0108 -75.2881 103° East 414 476 18,100 -1,500 Descending Boston Center
06:19PM 42.9853 -75.1450 104° East 398 458 16,500 -1,800 Descending Boston Center
06:20PM 42.9578 -74.9736 102° East 411 473 14,300 -1,860 Descending Boston Center
06:21PM 42.9439 -74.8483 99° East 374 430 12,800 -1,560 Descending Boston Center
06:22PM 42.9347 -74.6861 94° East 361 415 11,000 -900 Descending Boston Center
06:23PM 42.9269 -74.5525 95° East 360 414 11,000  Level Boston Center
06:24PM 42.9169 -74.4047 95° East 360 414 11,000 -480 Level Boston Center
06:25PM 42.9108 -74.2769 94° East 329 379 10,100 -1,020 Descending Boston Center
06:26PM 42.9058 -74.1919 95° East 320 368 8,900 -1,560 Descending Boston Center
06:27PM 42.8975 -74.0469 94° East 298 343 6,900 -1,920 Descending Boston Center
06:28PM 42.8928 -73.9450 94° East 281 323 5,200 -1,740 Descending Boston Center
06:29PM 42.8878 -73.8400 94° East 280 322 3,500 -1,500 Descending Boston Center
06:30PM 42.8828 -73.7294 93° East 277 319 2,200 -660 Descending Boston Center
06:31PM 42.8628 -73.6667 113° Southeast 244 281 2,200  Level Boston Center
06:32PM 42.8153 -73.6317 152° Southeast 201 231 2,200  Level Boston Center
06:33PM 42.7611 -73.6194 171° South 183 211 2,200  Level Boston Center